sensor_id;sensor_type;location;lat;lon;timestamp;temperature;humidity
28069;DHT22;15382;47.578;8.086;2024-03-29T00:07:25;5.30;99.90
28069;DHT22;15382;47.578;8.086;2024-03-29T00:17:25;5.30;99.90
28069;DHT22;15382;47.578;8.086;2024-03-29T00:27:26;5.30;99.90
28069;DHT22;15382;47.578;8.086;2024-03-29T00:37:28;5.10;99.90
28069;DHT22;15382;47.578;8.086;2024-03-29T00:47:29;4.70;99.90
28069;DHT22;15382;47.578;8.086;2024-03-29T00:57:29;4.70;99.90
28069;DHT22;15382;47.578;8.086;2024-03-29T01:07:30;4.70;99.90
28069;DHT22;15382;47.578;8.086;2024-03-29T01:17:31;4.50;99.90
28069;DHT22;15382;47.578;8.086;2024-03-29T01:27:31;4.60;99.90
28069;DHT22;15382;47.578;8.086;2024-03-29T01:37:32;4.40;99.90
28069;DHT22;15382;47.578;8.086;2024-03-29T01:47:32;4.40;99.90
28069;DHT22;15382;47.578;8.086;2024-03-29T01:57:33;4.30;99.90
28069;DHT22;15382;47.578;8.086;2024-03-29T02:07:34;4.30;99.90
28069;DHT22;15382;47.578;8.086;2024-03-29T02:17:35;4.30;99.90
28069;DHT22;15382;47.578;8.086;2024-03-29T02:27:36;3.80;99.90
28069;DHT22;15382;47.578;8.086;2024-03-29T02:37:37;3.60;99.90
28069;DHT22;15382;47.578;8.086;2024-03-29T02:47:38;3.90;99.90
28069;DHT22;15382;47.578;8.086;2024-03-29T02:57:39;4.20;99.90
28069;DHT22;15382;47.578;8.086;2024-03-29T03:07:39;4.40;99.90
28069;DHT22;15382;47.578;8.086;2024-03-29T03:17:59;4.30;99.90
28069;DHT22;15382;47.578;8.086;2024-03-29T03:27:59;4.40;99.90
28069;DHT22;15382;47.578;8.086;2024-03-29T03:38:00;4.40;99.90
28069;DHT22;15382;47.578;8.086;2024-03-29T03:48:02;4.50;99.90
28069;DHT22;15382;47.578;8.086;2024-03-29T03:58:02;4.60;99.90
28069;DHT22;15382;47.578;8.086;2024-03-29T04:08:04;4.60;99.90
28069;DHT22;15382;47.578;8.086;2024-03-29T04:18:05;4.50;99.90
28069;DHT22;15382;47.578;8.086;2024-03-29T04:28:06;4.30;99.90
28069;DHT22;15382;47.578;8.086;2024-03-29T04:38:07;4.40;99.90
28069;DHT22;15382;47.578;8.086;2024-03-29T04:48:07;4.50;99.90
28069;DHT22;15382;47.578;8.086;2024-03-29T04:58:09;4.50;99.90
28069;DHT22;15382;47.578;8.086;2024-03-29T05:08:09;4.60;99.90
28069;DHT22;15382;47.578;8.086;2024-03-29T05:18:10;4.80;99.90
28069;DHT22;15382;47.578;8.086;2024-03-29T05:28:10;4.70;99.90
28069;DHT22;15382;47.578;8.086;2024-03-29T05:38:11;5.00;99.90
28069;DHT22;15382;47.578;8.086;2024-03-29T05:48:12;5.10;99.90
28069;DHT22;15382;47.578;8.086;2024-03-29T05:58:12;5.00;99.90
28069;DHT22;15382;47.578;8.086;2024-03-29T06:08:17;4.50;99.90
28069;DHT22;15382;47.578;8.086;2024-03-29T06:18:18;4.70;99.90
28069;DHT22;15382;47.578;8.086;2024-03-29T06:28:19;5.00;99.90
28069;DHT22;15382;47.578;8.086;2024-03-29T06:38:19;5.00;99.90
28069;DHT22;15382;47.578;8.086;2024-03-29T06:48:20;4.90;99.90
28069;DHT22;15382;47.578;8.086;2024-03-29T06:58:21;5.00;99.90
28069;DHT22;15382;47.578;8.086;2024-03-29T07:08:21;5.00;99.90
28069;DHT22;15382;47.578;8.086;2024-03-29T07:18:22;5.40;99.90
28069;DHT22;15382;47.578;8.086;2024-03-29T07:28:23;5.90;99.90
28069;DHT22;15382;47.578;8.086;2024-03-29T07:38:23;5.80;99.90
28069;DHT22;15382;47.578;8.086;2024-03-29T07:48:24;5.50;99.90
28069;DHT22;15382;47.578;8.086;2024-03-29T07:58:25;5.80;99.90
28069;DHT22;15382;47.578;8.086;2024-03-29T08:08:26;6.10;99.90
28069;DHT22;15382;47.578;8.086;2024-03-29T08:18:27;6.30;99.90
28069;DHT22;15382;47.578;8.086;2024-03-29T08:28:28;6.60;99.90
28069;DHT22;15382;47.578;8.086;2024-03-29T08:38:29;7.00;99.90
28069;DHT22;15382;47.578;8.086;2024-03-29T08:48:30;7.30;99.90
28069;DHT22;15382;47.578;8.086;2024-03-29T08:58:30;7.90;99.90
28069;DHT22;15382;47.578;8.086;2024-03-29T09:08:31;8.30;99.90
28069;DHT22;15382;47.578;8.086;2024-03-29T09:18:32;8.60;99.90
28069;DHT22;15382;47.578;8.086;2024-03-29T09:28:32;9.20;99.90
28069;DHT22;15382;47.578;8.086;2024-03-29T09:38:34;10.00;99.90
28069;DHT22;15382;47.578;8.086;2024-03-29T09:48:35;10.10;99.90
28069;DHT22;15382;47.578;8.086;2024-03-29T09:58:37;10.20;99.90
28069;DHT22;15382;47.578;8.086;2024-03-29T10:08:38;9.90;99.90
28069;DHT22;15382;47.578;8.086;2024-03-29T10:18:41;10.00;99.90
28069;DHT22;15382;47.578;8.086;2024-03-29T10:28:46;10.40;99.90
28069;DHT22;15382;47.578;8.086;2024-03-29T10:38:47;10.60;99.90
28069;DHT22;15382;47.578;8.086;2024-03-29T10:48:48;11.40;99.90
28069;DHT22;15382;47.578;8.086;2024-03-29T10:58:50;12.20;99.90
28069;DHT22;15382;47.578;8.086;2024-03-29T11:08:53;12.50;99.90
28069;DHT22;15382;47.578;8.086;2024-03-29T11:18:55;11.60;99.90
28069;DHT22;15382;47.578;8.086;2024-03-29T11:28:56;12.10;99.90
28069;DHT22;15382;47.578;8.086;2024-03-29T11:38:59;14.00;99.90
28069;DHT22;15382;47.578;8.086;2024-03-29T11:49:00;15.70;99.90
28069;DHT22;15382;47.578;8.086;2024-03-29T11:59:01;16.30;99.90
28069;DHT22;15382;47.578;8.086;2024-03-29T12:09:04;17.00;99.90
28069;DHT22;15382;47.578;8.086;2024-03-29T12:19:05;17.70;99.90
28069;DHT22;15382;47.578;8.086;2024-03-29T12:29:06;18.50;99.90
28069;DHT22;15382;47.578;8.086;2024-03-29T12:39:06;18.40;99.90
28069;DHT22;15382;47.578;8.086;2024-03-29T12:49:09;19.80;99.90
28069;DHT22;15382;47.578;8.086;2024-03-29T12:59:10;20.90;99.90
28069;DHT22;15382;47.578;8.086;2024-03-29T13:09:11;20.30;99.90
28069;DHT22;15382;47.578;8.086;2024-03-29T13:19:13;21.10;99.90
28069;DHT22;15382;47.578;8.086;2024-03-29T13:29:14;21.20;99.90
28069;DHT22;15382;47.578;8.086;2024-03-29T13:39:15;21.10;97.30
28069;DHT22;15382;47.578;8.086;2024-03-29T13:49:16;21.30;97.60
28069;DHT22;15382;47.578;8.086;2024-03-29T13:59:20;21.90;98.00
28069;DHT22;15382;47.578;8.086;2024-03-29T14:09:21;21.50;94.90
28069;DHT22;15382;47.578;8.086;2024-03-29T14:19:22;21.10;94.90
28069;DHT22;15382;47.578;8.086;2024-03-29T14:29:23;20.90;96.20
28069;DHT22;15382;47.578;8.086;2024-03-29T14:39:24;20.40;99.90
28069;DHT22;15382;47.578;8.086;2024-03-29T14:49:24;19.60;99.90
28069;DHT22;15382;47.578;8.086;2024-03-29T14:59:25;19.10;99.90
28069;DHT22;15382;47.578;8.086;2024-03-29T15:09:26;18.70;99.90
28069;DHT22;15382;47.578;8.086;2024-03-29T15:19:27;18.50;99.90
28069;DHT22;15382;47.578;8.086;2024-03-29T15:29:27;18.10;99.90
28069;DHT22;15382;47.578;8.086;2024-03-29T15:39:28;18.00;99.90
28069;DHT22;15382;47.578;8.086;2024-03-29T15:49:29;18.00;99.90
28069;DHT22;15382;47.578;8.086;2024-03-29T15:59:29;18.10;99.90
28069;DHT22;15382;47.578;8.086;2024-03-29T16:09:30;17.80;99.90
28069;DHT22;15382;47.578;8.086;2024-03-29T16:19:30;17.50;99.90
28069;DHT22;15382;47.578;8.086;2024-03-29T16:29:31;17.40;99.90
28069;DHT22;15382;47.578;8.086;2024-03-29T16:39:32;16.70;99.90
28069;DHT22;15382;47.578;8.086;2024-03-29T16:49:32;16.20;99.90
28069;DHT22;15382;47.578;8.086;2024-03-29T16:59:33;16.10;99.90
28069;DHT22;15382;47.578;8.086;2024-03-29T17:09:35;15.90;99.90
28069;DHT22;15382;47.578;8.086;2024-03-29T17:19:36;14.80;99.90
28069;DHT22;15382;47.578;8.086;2024-03-29T17:29:37;14.80;99.90
28069;DHT22;15382;47.578;8.086;2024-03-29T17:39:37;14.70;99.90
28069;DHT22;15382;47.578;8.086;2024-03-29T17:49:38;14.20;99.90
28069;DHT22;15382;47.578;8.086;2024-03-29T17:59:39;13.60;99.90
28069;DHT22;15382;47.578;8.086;2024-03-29T18:09:40;13.00;99.90
28069;DHT22;15382;47.578;8.086;2024-03-29T18:19:40;12.80;99.90
28069;DHT22;15382;47.578;8.086;2024-03-29T18:29:41;12.50;99.90
28069;DHT22;15382;47.578;8.086;2024-03-29T18:39:41;12.10;99.90
28069;DHT22;15382;47.578;8.086;2024-03-29T18:49:42;11.90;99.90
28069;DHT22;15382;47.578;8.086;2024-03-29T18:59:43;12.10;99.90
28069;DHT22;15382;47.578;8.086;2024-03-29T19:09:43;12.30;99.90
28069;DHT22;15382;47.578;8.086;2024-03-29T19:19:44;12.50;99.90
28069;DHT22;15382;47.578;8.086;2024-03-29T19:29:49;12.10;99.90
28069;DHT22;15382;47.578;8.086;2024-03-29T19:39:50;12.00;99.90
28069;DHT22;15382;47.578;8.086;2024-03-29T19:49:50;12.20;99.90
28069;DHT22;15382;47.578;8.086;2024-03-29T19:59:51;11.70;99.90
28069;DHT22;15382;47.578;8.086;2024-03-29T20:09:52;11.70;99.90
28069;DHT22;15382;47.578;8.086;2024-03-29T20:19:53;11.50;99.90
28069;DHT22;15382;47.578;8.086;2024-03-29T20:29:54;11.80;99.90
28069;DHT22;15382;47.578;8.086;2024-03-29T20:39:55;11.40;99.90
28069;DHT22;15382;47.578;8.086;2024-03-29T20:49:55;11.50;99.90
28069;DHT22;15382;47.578;8.086;2024-03-29T20:59:56;11.50;99.90
28069;DHT22;15382;47.578;8.086;2024-03-29T21:09:58;11.30;99.90
28069;DHT22;15382;47.578;8.086;2024-03-29T21:19:58;10.60;99.90
28069;DHT22;15382;47.578;8.086;2024-03-29T21:29:59;10.10;99.90
28069;DHT22;15382;47.578;8.086;2024-03-29T21:40:00;10.80;99.90
28069;DHT22;15382;47.578;8.086;2024-03-29T21:50:02;10.80;99.90
28069;DHT22;15382;47.578;8.086;2024-03-29T22:00:02;10.50;99.90
28069;DHT22;15382;47.578;8.086;2024-03-29T22:10:05;10.40;99.90
28069;DHT22;15382;47.578;8.086;2024-03-29T22:20:06;10.10;99.90
28069;DHT22;15382;47.578;8.086;2024-03-29T22:30:06;10.40;99.90
28069;DHT22;15382;47.578;8.086;2024-03-29T22:40:07;11.10;99.90
28069;DHT22;15382;47.578;8.086;2024-03-29T22:50:08;11.30;99.90
28069;DHT22;15382;47.578;8.086;2024-03-29T23:00:08;11.00;99.90
28069;DHT22;15382;47.578;8.086;2024-03-29T23:10:11;11.10;99.90
28069;DHT22;15382;47.578;8.086;2024-03-29T23:20:12;11.10;99.90
28069;DHT22;15382;47.578;8.086;2024-03-29T23:30:12;10.60;99.90
28069;DHT22;15382;47.578;8.086;2024-03-29T23:40:13;10.00;99.90
28069;DHT22;15382;47.578;8.086;2024-03-29T23:50:14;9.80;99.90
